Terminal Aerodrome Forecast
Issued by NWS Sioux Falls, SD

Home | Current Version | Previous Version | Text Only | Print | Product List | Glossary Off
Versions: 1 2 3 4 5 6 7 8 9 10 11 12 13 14 15 16 17 18 19 20 21 22 23 24 25 26 27 28

000
FTUS43 KFSD 280537
TAFSUX
TAF
KSUX 280537Z 2806/2906 15012KT P6SM SCT011 SCT120
      TEMPO 2807/2809 BKN010
     FM280900 16011KT P6SM OVC100
      TEMPO 2809/2811 VRB15G25KT 6SM TSRA OVC040CB
     FM281500 23010KT P6SM SCT025
     FM281800 30010KT P6SM BKN025
     FM290200 32006KT P6SM SKC=

USA.gov is the U.S. government's official web portal to all federal, state and local government web resources and services.